Time;durP1;ratioP1;P1;durP2;ratioP2;P2;SDS_P1;SDS_P2;PMS_P1;PMS_P2;Temp;Humidity;BMP_temperature;BMP_pressure;BME280_temperature;BME280_humidity;BME280_pressure;Samples;Min_cycle;Max_cycle;Signal;HPM_P1;HPM_P2
2022/07/14 00:09:45;;;;;;;1.43;1.17;;;23.60;51.20;;;;;;20914870;28;20238;-64
2022/07/14 00:19:46;;;;;;;3.23;1.67;;;23.40;51.40;;;;;;20913129;28;20208;-63
2022/07/14 00:29:48;;;;;;;5.30;1.60;;;23.30;51.90;;;;;;20909489;28;20253;-64
2022/07/14 00:39:56;;;;;;;3.23;1.40;;;23.20;52.40;;;;;;20912792;28;20745;-63
2022/07/14 00:49:58;;;;;;;2.97;1.90;;;23.10;53.00;;;;;;20911908;28;20266;-61
2022/07/14 01:00:00;;;;;;;2.40;1.40;;;23.00;53.50;;;;;;20918936;28;20247;-63
2022/07/14 01:10:02;;;;;;;3.03;1.60;;;22.90;53.90;;;;;;20928543;28;20240;-61
2022/07/14 01:20:05;;;;;;;3.23;1.70;;;22.90;54.40;;;;;;20927450;28;20262;-62
2022/07/14 01:30:07;;;;;;;2.63;1.73;;;22.80;55.20;;;;;;20926629;28;20661;-62
2022/07/14 01:40:10;;;;;;;2.97;1.60;;;22.80;55.90;;;;;;20926001;28;20711;-63
2022/07/14 01:50:13;;;;;;;1.73;1.63;;;22.70;56.40;;;;;;20925175;28;20653;-63
2022/07/14 02:00:15;;;;;;;2.47;1.40;;;22.60;56.70;;;;;;20924388;28;20219;-63
2022/07/14 02:20:37;;;;;;;5.00;1.70;;;22.40;57.30;;;;;;20922076;28;20208;-62
2022/07/14 02:30:39;;;;;;;3.97;1.40;;;22.40;57.50;;;;;;20918568;28;20591;-63
2022/07/14 02:40:41;;;;;;;10.87;1.83;;;22.30;57.60;;;;;;20921650;28;20271;-62
2022/07/14 02:50:43;;;;;;;3.87;1.40;;;22.20;58.20;;;;;;20920477;28;20241;-61
2022/07/14 03:00:44;;;;;;;2.40;1.57;;;22.00;58.60;;;;;;20919813;28;20210;-64
2022/07/14 03:10:46;;;;;;;2.70;1.40;;;21.90;59.30;;;;;;20919288;28;20343;-65
2022/07/14 03:20:48;;;;;;;2.30;1.80;;;21.80;59.90;;;;;;20917146;28;20576;-64
2022/07/14 03:30:55;;;;;;;2.80;1.87;;;21.60;60.30;;;;;;20917122;28;20235;-63
2022/07/14 03:40:57;;;;;;;7.17;2.20;;;21.50;60.90;;;;;;20916644;28;20278;-63
2022/07/14 03:50:59;;;;;;;6.27;3.23;;;21.50;61.90;;;;;;20915569;28;20235;-62
2022/07/14 04:01:02;;;;;;;2.63;1.83;;;21.30;62.50;;;;;;20914976;28;20214;-63
2022/07/14 04:11:05;;;;;;;3.80;2.47;;;21.20;63.20;;;;;;20914489;28;20250;-63
2022/07/14 04:21:11;;;;;;;7.23;2.87;;;21.00;64.00;;;;;;20933641;28;20707;-62
2022/07/14 04:31:13;;;;;;;5.73;2.40;;;21.00;64.70;;;;;;20992702;28;20624;-61
2022/07/14 04:41:15;;;;;;;12.57;2.37;;;21.00;65.30;;;;;;20995289;28;20289;-63
2022/07/14 05:01:38;;;;;;;9.90;3.00;;;21.00;66.30;;;;;;20993385;28;20234;-65
2022/07/14 05:11:41;;;;;;;12.70;4.07;;;21.20;66.50;;;;;;20994120;28;20321;-65
2022/07/14 05:21:44;;;;;;;8.27;3.10;;;21.40;66.90;;;;;;20992381;28;20313;-66
2022/07/14 05:31:45;;;;;;;22.93;4.67;;;21.40;67.30;;;;;;20988849;28;20298;-71
2022/07/14 05:41:47;;;;;;;26.73;4.57;;;21.50;67.70;;;;;;20986686;28;20231;-71
2022/07/14 05:51:49;;;;;;;23.07;4.20;;;21.50;68.50;;;;;;20997719;28;20243;-71
2022/07/14 06:01:51;;;;;;;20.73;5.13;;;21.70;68.90;;;;;;21003755;28;20231;-71
2022/07/14 06:11:53;;;;;;;12.20;3.03;;;21.80;68.80;;;;;;21002946;28;20649;-71
2022/07/14 06:21:54;;;;;;;25.57;11.03;;;21.90;69.30;;;;;;20978831;28;20231;-70
2022/07/14 06:31:56;;;;;;;30.73;6.40;;;22.00;68.50;;;;;;20916848;28;20582;-70
2022/07/14 06:41:58;;;;;;;23.93;6.73;;;22.20;68.80;;;;;;20916436;28;20240;-70
2022/07/14 06:52:00;;;;;;;18.60;6.70;;;22.30;68.50;;;;;;20919075;28;20540;-71
2022/07/14 07:02:02;;;;;;;13.87;5.70;;;22.50;68.30;;;;;;20914689;28;20249;-71
2022/07/14 07:12:04;;;;;;;28.67;6.60;;;22.80;67.70;;;;;;20912945;28;20243;-72
2022/07/14 07:22:06;;;;;;;25.90;6.97;;;23.10;67.00;;;;;;20912234;28;20238;-71
2022/07/14 07:32:08;;;;;;;41.37;7.20;;;23.30;66.60;;;;;;20911703;28;20235;-71
2022/07/14 07:42:10;;;;;;;24.50;5.60;;;23.60;66.60;;;;;;20910309;28;20267;-71
2022/07/14 07:52:12;;;;;;;22.67;4.27;;;23.70;66.50;;;;;;20910917;28;20208;-71
2022/07/14 08:02:14;;;;;;;16.83;4.17;;;23.90;66.10;;;;;;20911247;28;20637;-71
2022/07/14 08:12:16;;;;;;;9.73;4.00;;;24.20;65.70;;;;;;20907739;28;20291;-71
2022/07/14 08:22:25;;;;;;;13.93;3.43;;;24.60;64.70;;;;;;20907295;28;20271;-70
2022/07/14 08:32:38;;;;;;;8.63;2.93;;;24.90;63.80;;;;;;20909115;28;20675;-71
2022/07/14 08:42:45;;;;;;;7.37;2.60;;;25.20;62.10;;;;;;20911464;28;20292;-71
2022/07/14 08:52:47;;;;;;;8.73;2.40;;;25.30;60.80;;;;;;20911586;28;20299;-70
2022/07/14 09:02:54;;;;;;;7.80;2.60;;;25.50;60.00;;;;;;20910950;28;20323;-71
2022/07/14 09:13:21;;;;;;;8.50;3.73;;;25.70;59.50;;;;;;20908945;28;20600;-70
2022/07/14 09:23:31;;;;;;;6.63;2.90;;;25.80;59.10;;;;;;20919604;28;20224;-70
2022/07/14 09:33:34;;;;;;;8.40;2.67;;;26.10;59.10;;;;;;20925958;28;20214;-70
2022/07/14 09:43:36;;;;;;;13.43;2.70;;;26.20;58.70;;;;;;20925014;28;20236;-71
2022/07/14 09:53:38;;;;;;;9.10;2.70;;;26.30;58.50;;;;;;20924222;28;20208;-71
2022/07/14 10:03:42;;;;;;;11.23;2.70;;;26.50;58.40;;;;;;20922966;28;20668;-71
2022/07/14 10:13:45;;;;;;;5.33;2.80;;;26.70;58.30;;;;;;20921432;28;20648;-71
2022/07/14 10:23:47;;;;;;;5.77;2.87;;;26.90;58.10;;;;;;20920983;28;20322;-70
2022/07/14 10:34:28;;;;;;;12.25;3.13;;;27.30;57.30;;;;;;20916898;28;20287;-71
2022/07/14 10:44:33;;;;;;;5.32;2.83;;;27.50;55.20;;;;;;20919404;28;20787;-69
2022/07/14 10:54:35;;;;;;;3.13;2.50;;;27.70;53.60;;;;;;20919405;28;20299;-71
2022/07/14 11:05:06;;;;;;;7.65;2.90;;;27.90;53.70;;;;;;20915844;28;20242;-71
2022/07/14 11:15:44;;;;;;;15.73;3.20;;;27.90;54.30;;;;;;20913375;28;20311;-71
2022/07/14 11:25:46;;;;;;;15.90;3.05;;;28.00;54.60;;;;;;20913282;28;20238;-71
2022/07/14 11:46:31;;;;;;;7.13;2.78;;;28.10;54.40;;;;;;20913819;28;20250;-71
2022/07/14 11:56:33;;;;;;;8.50;2.90;;;28.40;52.80;;;;;;20914159;28;20239;-70
2022/07/14 12:06:39;;;;;;;5.97;2.13;;;28.70;51.90;;;;;;20913938;28;20232;-70
2022/07/14 12:16:42;;;;;;;4.20;2.65;;;28.80;51.10;;;;;;20944874;28;20231;-70
2022/07/14 12:26:44;;;;;;;10.02;3.10;;;28.70;51.00;;;;;;20946875;28;20235;-71
2022/07/14 12:36:50;;;;;;;4.77;2.90;;;28.80;50.70;;;;;;20904596;28;20578;-71
2022/07/14 12:47:09;;;;;;;3.85;2.10;;;28.80;50.40;;;;;;20907007;28;20610;-72
2022/07/14 12:57:19;;;;;;;15.15;2.30;;;28.90;49.60;;;;;;20905508;28;20667;-71
2022/07/14 13:07:29;;;;;;;6.25;2.28;;;28.90;48.90;;;;;;20907694;28;20227;-72
2022/07/14 13:17:51;;;;;;;3.88;2.17;;;28.80;49.00;;;;;;20905186;28;20234;-71
2022/07/14 13:27:54;;;;;;;8.05;3.08;;;28.60;48.90;;;;;;20904628;28;20268;-71
2022/07/14 13:37:55;;;;;;;9.10;3.30;;;28.60;49.90;;;;;;20902425;28;20636;-69
2022/07/14 13:47:57;;;;;;;12.75;4.00;;;28.70;50.70;;;;;;20903528;28;20320;-70
2022/07/14 13:57:59;;;;;;;9.13;3.20;;;28.50;51.60;;;;;;20907758;28;20204;-72
2022/07/14 14:08:01;;;;;;;10.02;3.80;;;28.50;51.80;;;;;;20913815;28;20250;-69
2022/07/14 14:18:02;;;;;;;14.13;3.78;;;28.70;51.60;;;;;;20921649;28;20214;-72
2022/07/14 14:28:07;;;;;;;8.52;4.32;;;28.80;51.70;;;;;;20962728;28;20321;-71
2022/07/14 14:38:09;;;;;;;5.32;3.10;;;28.90;51.90;;;;;;21001545;28;20299;-72
2022/07/14 14:48:12;;;;;;;6.90;3.28;;;28.80;52.40;;;;;;21002319;28;20334;-76
2022/07/14 14:58:14;;;;;;;13.85;3.95;;;28.70;53.50;;;;;;21002200;28;20207;-72
2022/07/14 15:08:19;;;;;;;6.93;3.95;;;28.30;54.80;;;;;;20994399;28;20249;-71
2022/07/14 15:18:21;;;;;;;13.07;5.20;;;28.00;55.70;;;;;;20995174;28;20211;-70
2022/07/14 15:28:23;;;;;;;6.60;3.88;;;27.90;56.00;;;;;;20974317;28;20589;-69
2022/07/14 15:38:25;;;;;;;10.70;4.17;;;27.50;56.50;;;;;;20914407;28;20239;-72
2022/07/14 15:48:27;;;;;;;9.13;3.17;;;27.20;56.90;;;;;;20909946;28;20267;-69
2022/07/14 15:58:29;;;;;;;7.30;2.90;;;27.00;55.00;;;;;;20913897;28;20208;-71
2022/07/14 16:08:30;;;;;;;6.20;2.90;;;26.60;53.00;;;;;;20913316;28;20326;-77
2022/07/14 16:18:32;;;;;;;11.87;3.03;;;26.30;52.50;;;;;;20964562;28;20209;-77
2022/07/14 16:28:34;;;;;;;4.60;2.60;;;26.00;52.30;;;;;;21079636;28;20234;-69
2022/07/14 16:38:36;;;;;;;6.77;2.90;;;25.80;51.70;;;;;;21051685;28;20205;-71
2022/07/14 16:48:38;;;;;;;4.57;2.37;;;25.80;51.40;;;;;;20995899;28;20674;-69
2022/07/14 16:58:39;;;;;;;4.50;2.83;;;25.80;50.60;;;;;;20995330;28;20207;-70
2022/07/14 17:08:41;;;;;;;8.17;3.33;;;25.50;50.40;;;;;;20994818;28;20262;-71
2022/07/14 17:18:43;;;;;;;3.63;2.70;;;25.50;50.50;;;;;;20993043;28;20234;-70
2022/07/14 17:28:46;;;;;;;7.13;3.33;;;25.40;50.50;;;;;;20994363;28;20230;-71
2022/07/14 17:38:48;;;;;;;5.10;3.07;;;25.30;50.60;;;;;;20994143;28;20294;-72
2022/07/14 17:48:49;;;;;;;5.23;3.03;;;25.30;50.30;;;;;;21008444;28;20330;-71
2022/07/14 17:58:51;;;;;;;4.90;3.00;;;25.40;50.50;;;;;;21006661;28;20290;-72
2022/07/14 18:08:53;;;;;;;7.20;3.30;;;25.40;50.70;;;;;;21007503;28;20246;-71
2022/07/14 18:18:55;;;;;;;5.60;3.00;;;25.30;50.70;;;;;;20999238;28;20203;-70
2022/07/14 18:28:57;;;;;;;6.23;2.80;;;25.30;49.90;;;;;;21001505;28;20237;-71
2022/07/14 18:38:59;;;;;;;6.13;3.20;;;25.30;49.50;;;;;;21005243;28;20211;-71
2022/07/14 18:49:01;;;;;;;10.73;3.10;;;25.30;49.30;;;;;;21004016;28;20758;-70
2022/07/14 18:59:03;;;;;;;5.60;2.70;;;25.10;49.10;;;;;;21001975;28;20234;-69
2022/07/14 19:09:04;;;;;;;6.43;3.50;;;25.00;49.40;;;;;;21002983;28;20231;-67
2022/07/14 19:19:07;;;;;;;4.60;2.40;;;24.90;48.50;;;;;;21001780;28;20597;-67
2022/07/14 19:29:09;;;;;;;7.80;2.47;;;24.70;47.30;;;;;;21000546;28;20346;-71
2022/07/14 19:39:11;;;;;;;6.77;2.43;;;24.60;47.10;;;;;;20999497;28;20681;-72
2022/07/14 19:49:15;;;;;;;4.57;2.30;;;24.40;46.60;;;;;;20998987;28;20242;-72
2022/07/14 19:59:18;;;;;;;7.03;2.23;;;24.20;46.70;;;;;;20998201;28;20542;-71
2022/07/14 20:09:21;;;;;;;10.67;7.30;;;24.00;46.70;;;;;;20997321;28;20253;-73
2022/07/14 20:19:22;;;;;;;6.20;2.70;;;23.90;46.80;;;;;;20975398;28;20242;-72
2022/07/14 20:39:44;;;;;;;6.90;2.17;;;23.60;47.20;;;;;;20911754;28;20242;-72
2022/07/14 20:49:47;;;;;;;5.03;2.17;;;23.40;47.30;;;;;;20912843;28;20235;-72
2022/07/14 20:59:49;;;;;;;6.73;2.30;;;23.20;47.40;;;;;;20912197;28;20281;-71
2022/07/14 21:09:51;;;;;;;9.27;2.20;;;23.10;47.80;;;;;;20911626;28;20232;-72
2022/07/14 21:19:53;;;;;;;2.97;1.40;;;22.90;47.70;;;;;;20923597;28;20207;-72
2022/07/14 21:29:55;;;;;;;6.27;1.57;;;22.80;47.50;;;;;;20926527;28;20239;-72
2022/07/14 21:39:57;;;;;;;3.20;1.40;;;22.60;47.20;;;;;;20926671;28;20232;-69
2022/07/14 21:50:07;;;;;;;6.63;1.30;;;22.50;47.30;;;;;;20926459;28;20231;-71
2022/07/14 22:00:10;;;;;;;3.13;1.40;;;22.40;47.00;;;;;;20925663;28;20237;-73
2022/07/14 22:10:12;;;;;;;4.30;1.50;;;22.20;46.80;;;;;;20924470;28;20240;-71
2022/07/14 22:20:15;;;;;;;4.73;1.40;;;22.00;47.00;;;;;;20921279;28;20647;-70
2022/07/14 22:30:17;;;;;;;3.87;1.50;;;21.90;47.20;;;;;;20919145;28;20228;-70
2022/07/14 22:40:19;;;;;;;4.40;1.50;;;21.80;48.30;;;;;;20921997;28;20241;-71
2022/07/14 22:50:21;;;;;;;3.77;1.67;;;21.70;48.50;;;;;;20921632;28;20278;-71
2022/07/14 23:00:23;;;;;;;5.37;1.60;;;21.60;49.30;;;;;;20919495;28;20222;-70
2022/07/14 23:10:25;;;;;;;6.60;1.60;;;21.30;49.50;;;;;;20919873;28;20590;-71
2022/07/14 23:20:31;;;;;;;3.67;1.33;;;21.00;49.60;;;;;;20919490;28;20654;-70
2022/07/14 23:30:40;;;;;;;3.57;1.60;;;20.70;49.90;;;;;;20918228;28;20267;-70
2022/07/14 23:40:42;;;;;;;4.97;1.60;;;20.50;50.30;;;;;;20917285;28;20245;-72
2022/07/14 23:50:44;;;;;;;8.97;1.67;;;20.20;50.80;;;;;;20915740;28;20329;-71
